Time;durP1;ratioP1;P1;durP2;ratioP2;P2;SDS_P1;SDS_P2;PMS_P1;PMS_P2;Temp;Humidity;BMP_temperature;BMP_pressure;BME280_temperature;BME280_humidity;BME280_pressure;Samples;Min_cycle;Max_cycle;Signal;HPM_P1;HPM_P2
2022/12/18 00:02:03;;;;;;;73.45;24.67;;;;;;;-5.54;95.51;97375.38;5000395;28;20113;-85
2022/12/18 00:04:30;;;;;;;69.93;24.38;;;;;;;-5.58;95.25;97368.84;4991580;28;20550;-86
2022/12/18 00:06:56;;;;;;;79.78;28.00;;;;;;;-5.62;95.79;97361.44;4992001;28;20470;-83
2022/12/18 00:09:24;;;;;;;68.28;25.83;;;;;;;-5.66;95.84;97366.28;4991796;28;20418;-80
2022/12/18 00:11:51;;;;;;;77.32;27.08;;;;;;;-5.64;96.25;97374.88;4991946;28;20046;-87
2022/12/18 00:14:17;;;;;;;70.15;24.92;;;;;;;-5.59;96.18;97387.56;4992070;28;20046;-87
2022/12/18 00:16:46;;;;;;;70.57;24.33;;;;;;;-5.63;96.59;97373.88;4993710;28;20042;-81
2022/12/18 00:19:13;;;;;;;75.38;25.17;;;;;;;-5.60;96.19;97386.75;4998655;28;20061;-88
2022/12/18 00:21:40;;;;;;;66.97;24.73;;;;;;;-5.67;96.15;97391.19;4991492;28;20421;-84
2022/12/18 00:24:07;;;;;;;72.63;24.58;;;;;;;-5.70;96.48;97390.75;4996421;28;20061;-81
2022/12/18 00:26:37;;;;;;;68.40;23.35;;;;;;;-5.69;96.44;97395.88;4993490;28;20050;-84
2022/12/18 00:29:06;;;;;;;72.57;25.25;;;;;;;-5.64;96.12;97396.09;4991613;28;20054;-81
2022/12/18 00:31:33;;;;;;;71.80;24.88;;;;;;;-5.66;96.31;97387.53;4990229;28;20581;-86
2022/12/18 00:33:59;;;;;;;81.20;26.98;;;;;;;-5.65;96.40;97394.47;4991083;28;20046;-85
2022/12/18 00:36:28;;;;;;;78.47;26.65;;;;;;;-5.62;96.57;97403.91;4991949;28;20046;-82
2022/12/18 00:38:56;;;;;;;83.00;26.90;;;;;;;-5.53;96.23;97403.59;4983386;28;20410;-79
2022/12/18 00:44:06;;;;;;;79.35;27.83;;;;;;;-5.57;96.11;97407.63;4990515;28;20050;-78
2022/12/18 00:46:32;;;;;;;74.63;25.20;;;;;;;-5.58;96.44;97405.97;4990709;28;20040;-79
2022/12/18 00:48:59;;;;;;;79.63;26.95;;;;;;;-5.51;96.33;97396.25;4991272;28;20047;-77
2022/12/18 00:51:26;;;;;;;76.95;26.27;;;;;;;-5.59;96.49;97391.03;4991010;28;20046;-79
2022/12/18 00:53:53;;;;;;;80.55;26.50;;;;;;;-5.69;97.00;97393.22;4983362;28;20430;-78
2022/12/18 00:56:20;;;;;;;73.93;26.10;;;;;;;-5.58;96.95;97398.03;4990883;28;20466;-79
2022/12/18 00:58:46;;;;;;;69.35;25.10;;;;;;;-5.53;97.27;97400.09;4990813;28;20065;-80
2022/12/18 01:01:14;;;;;;;70.95;25.98;;;;;;;-5.57;97.51;97404.97;4990678;28;20047;-77
2022/12/18 01:03:41;;;;;;;63.55;23.13;;;;;;;-5.46;97.71;97400.16;4990850;28;20046;-81
2022/12/18 01:06:08;;;;;;;74.13;25.98;;;;;;;-5.42;97.45;97404.06;4990617;28;20048;-80
2022/12/18 01:08:34;;;;;;;72.70;24.15;;;;;;;-5.42;97.56;97404.06;5007489;28;20401;-77
2022/12/18 01:11:01;;;;;;;72.00;25.52;;;;;;;-5.34;97.20;97414.53;4990632;28;20050;-79
2022/12/18 01:13:28;;;;;;;69.82;23.85;;;;;;;-5.35;97.37;97415.56;4994458;28;20133;-79
2022/12/18 01:15:54;;;;;;;68.45;24.73;;;;;;;-5.30;97.64;97421.13;4995066;28;20046;-78
2022/12/18 01:18:22;;;;;;;69.53;24.50;;;;;;;-5.26;97.63;97411.78;4995053;28;20478;-77
2022/12/18 01:20:49;;;;;;;76.00;26.25;;;;;;;-5.25;97.50;97413.41;4995209;28;20575;-80
2022/12/18 01:23:15;;;;;;;83.45;26.92;;;;;;;-5.27;97.54;97418.09;4994770;28;20042;-81
2022/12/18 01:25:42;;;;;;;76.45;25.13;;;;;;;-5.24;97.49;97415.03;4994978;28;20422;-78
2022/12/18 01:28:08;;;;;;;71.03;24.70;;;;;;;-5.22;97.70;97414.84;4994712;28;20405;-77
2022/12/18 01:30:35;;;;;;;70.05;24.92;;;;;;;-5.20;97.68;97424.28;4999141;28;20054;-78
2022/12/18 01:33:01;;;;;;;72.35;25.33;;;;;;;-5.19;97.21;97425.91;4994241;28;20050;-79
2022/12/18 01:35:29;;;;;;;74.55;25.48;;;;;;;-5.24;97.54;97425.66;4991190;28;20070;-82
2022/12/18 01:37:56;;;;;;;74.68;26.42;;;;;;;-5.16;97.54;97433.50;4994973;28;20439;-79
2022/12/18 01:40:23;;;;;;;75.13;28.05;;;;;;;-5.21;97.67;97430.59;4994573;28;20038;-79
2022/12/18 01:42:52;;;;;;;68.32;24.27;;;;;;;-5.17;97.41;97439.81;4994126;28;20046;-80
2022/12/18 01:45:26;;;;;;;76.65;26.08;;;;;;;-5.12;97.58;97458.63;4994378;28;20042;-81
2022/12/18 01:47:55;;;;;;;80.53;27.27;;;;;;;-5.06;97.50;97454.41;4994057;28;20051;-77
2022/12/18 01:50:24;;;;;;;77.22;26.55;;;;;;;-5.01;96.98;97465.28;4994034;28;20093;-79
2022/12/18 01:52:56;;;;;;;74.18;25.08;;;;;;;-4.97;97.15;97465.72;4993810;28;20057;-78
2022/12/18 01:55:25;;;;;;;66.25;23.80;;;;;;;-4.97;97.13;97461.22;4994296;28;20410;-78
2022/12/18 01:57:54;;;;;;;64.10;24.75;;;;;;;-4.96;97.01;97472.66;4994129;28;20042;-77
2022/12/18 02:00:23;;;;;;;65.65;23.55;;;;;;;-4.94;96.66;97465.34;4993917;28;20085;-79
2022/12/18 02:02:50;;;;;;;66.03;25.02;;;;;;;-4.87;96.69;97471.50;4993663;28;20046;-79
2022/12/18 02:05:20;;;;;;;62.58;23.10;;;;;;;-4.86;96.53;97473.16;4993890;28;20052;-77
2022/12/18 02:08:03;;;;;;;61.97;23.25;;;;;;;-4.84;96.29;97471.13;4993849;28;20054;-78
2022/12/18 02:10:33;;;;;;;;;;;;;;;-4.82;96.21;97463.78;4993900;28;20102;-77
2022/12/18 02:13:10;;;;;;;64.50;23.00;;;;;;;-4.87;96.15;97455.56;4994024;28;19921;-77
2022/12/18 02:15:45;;;;;;;63.05;22.23;;;;;;;-4.79;96.25;97447.47;4993629;28;20080;-79
2022/12/18 02:18:17;;;;;;;57.05;22.77;;;;;;;-4.78;96.00;97443.78;4993004;28;20085;-78
2022/12/18 02:20:47;;;;;;;63.88;23.17;;;;;;;-4.81;95.71;97442.31;4995261;28;20465;-80
2022/12/18 02:23:25;;;;;;;62.45;22.83;;;;;;;-4.82;95.45;97445.19;4993310;28;20065;-80
2022/12/18 02:26:14;;;;;;;62.05;22.85;;;;;;;-4.84;95.26;97436.59;5009673;28;20043;-77
2022/12/18 02:28:45;;;;;;;67.28;22.58;;;;;;;-4.89;95.42;97441.66;4991165;28;20153;-78
2022/12/18 02:31:15;;;;;;;57.45;21.23;;;;;;;-4.84;95.31;97442.72;4993870;28;20039;-79
2022/12/18 02:33:44;;;;;;;58.45;20.80;;;;;;;-4.94;95.09;97438.78;4992960;28;20046;-79
2022/12/18 02:36:14;;;;;;;60.90;22.60;;;;;;;-4.87;95.30;97436.97;4993012;28;20047;-79
2022/12/18 02:38:43;;;;;;;63.88;23.33;;;;;;;-4.90;95.11;97434.72;4994992;28;20062;-78
2022/12/18 02:41:12;;;;;;;55.97;21.83;;;;;;;-4.95;95.26;97445.09;4999044;28;20065;-79
2022/12/18 02:43:39;;;;;;;54.00;20.23;;;;;;;-4.86;94.75;97435.94;4992966;28;20046;-77
2022/12/18 02:46:27;;;;;;;56.97;21.92;;;;;;;-4.92;94.84;97447.34;4992946;28;20099;-80
2022/12/18 02:48:57;;;;;;;56.92;21.55;;;;;;;-4.90;94.99;97437.38;4985336;28;20042;-79
2022/12/18 02:51:33;;;;;;;52.55;20.75;;;;;;;-4.91;95.25;97444.50;4993067;28;20058;-78
2022/12/18 02:54:06;;;;;;;62.35;21.98;;;;;;;-4.94;95.31;97441.44;4985900;28;20077;-77
2022/12/18 02:56:40;;;;;;;62.25;21.80;;;;;;;-4.91;95.38;97438.38;4992596;28;20046;-80
2022/12/18 02:59:12;;;;;;;60.25;21.83;;;;;;;-4.86;95.15;97436.78;4993032;28;20046;-79
2022/12/18 03:01:49;;;;;;;55.15;21.55;;;;;;;-4.90;95.49;97434.72;4992365;28;20053;-80
2022/12/18 03:04:22;;;;;;;56.33;22.00;;;;;;;-4.83;95.50;97435.56;4999515;28;20390;-78
2022/12/18 03:06:54;;;;;;;57.53;22.48;;;;;;;-4.80;95.50;97443.16;4993108;28;20505;-86
2022/12/18 03:09:25;;;;;;;56.53;20.88;;;;;;;-4.78;95.42;97447.25;4992731;28;20129;-81
2022/12/18 03:14:44;;;;;;;61.42;21.83;;;;;;;-4.73;95.46;97430.75;4992114;28;20414;-81
2022/12/18 03:17:17;;;;;;;59.70;20.60;;;;;;;-4.71;95.53;97434.00;4993034;28;20046;-80
2022/12/18 03:19:48;;;;;;;67.88;23.52;;;;;;;-4.70;95.30;97430.34;4992539;28;20046;-79
2022/12/18 03:22:16;;;;;;;68.38;24.83;;;;;;;-4.73;95.37;97431.56;4992448;28;20042;-79
2022/12/18 03:24:43;;;;;;;66.28;23.45;;;;;;;-4.69;95.42;97429.34;4992386;28;20152;-80
2022/12/18 03:27:15;;;;;;;67.32;24.13;;;;;;;-4.67;95.45;97429.94;4992523;28;20042;-82
2022/12/18 03:29:48;;;;;;;58.70;22.15;;;;;;;-4.62;95.20;97432.84;4992841;28;20038;-80
2022/12/18 03:32:20;;;;;;;62.78;22.75;;;;;;;-4.67;95.36;97432.63;4992268;28;20042;-79
2022/12/18 03:34:49;;;;;;;58.60;22.52;;;;;;;-4.70;95.74;97440.16;4994042;28;20058;-79
2022/12/18 03:37:16;;;;;;;60.17;20.77;;;;;;;-4.65;95.60;97432.41;4997232;28;20053;-81
2022/12/18 03:39:42;;;;;;;63.00;22.27;;;;;;;-4.63;95.21;97435.72;4992170;28;20406;-79
2022/12/18 03:42:19;;;;;;;58.30;20.92;;;;;;;-4.62;95.25;97437.34;4991732;28;20050;-79
2022/12/18 03:44:55;;;;;;;57.92;22.17;;;;;;;-4.76;95.21;97433.78;4998859;28;20046;-80
2022/12/18 03:47:28;;;;;;;60.63;21.95;;;;;;;-4.72;95.55;97437.69;4992298;28;20038;-81
2022/12/18 03:50:03;;;;;;;57.13;21.20;;;;;;;-4.74;95.55;97439.72;4996240;28;20046;-80
2022/12/18 03:52:36;;;;;;;57.72;23.05;;;;;;;-4.73;95.45;97441.38;4996789;28;20050;-81
2022/12/18 03:55:05;;;;;;;66.18;21.65;;;;;;;-4.72;95.49;97437.69;4992127;28;20046;-82
2022/12/18 03:57:33;;;;;;;60.88;21.70;;;;;;;-4.81;95.11;97438.84;4991894;28;20042;-80
2022/12/18 04:00:05;;;;;;;58.67;22.52;;;;;;;-4.79;95.13;97439.50;4992246;28;20046;-80
2022/12/18 04:02:34;;;;;;;59.20;21.50;;;;;;;-4.78;95.50;97438.47;4997090;28;20128;-80
2022/12/18 04:05:04;;;;;;;55.22;20.50;;;;;;;-4.78;95.71;97435.81;4991773;28;20042;-78
2022/12/18 04:07:31;;;;;;;65.20;21.15;;;;;;;-4.85;95.33;97437.63;4991576;28;20046;-79
2022/12/18 04:09:59;;;;;;;62.60;22.45;;;;;;;-4.90;95.60;97437.38;4991570;28;20279;-79
2022/12/18 04:12:26;;;;;;;59.90;21.33;;;;;;;-4.93;95.80;97432.44;4991164;28;20054;-79
2022/12/18 04:14:54;;;;;;;55.75;20.10;;;;;;;-4.91;95.77;97443.69;4999265;28;20046;-79
2022/12/18 04:17:21;;;;;;;58.40;20.70;;;;;;;-4.89;95.31;97446.97;4999560;28;20405;-80
2022/12/18 04:19:47;;;;;;;60.92;21.35;;;;;;;-5.04;95.69;97442.56;4991462;28;20050;-81
2022/12/18 04:22:14;;;;;;;54.60;20.15;;;;;;;-4.97;95.71;97449.78;4991370;28;20057;-77
2022/12/18 04:24:41;;;;;;;71.72;23.98;;;;;;;-5.01;95.66;97458.13;4991217;28;20050;-78
2022/12/18 04:27:08;;;;;;;63.28;22.45;;;;;;;-5.01;95.91;97466.09;4990914;28;20601;-77
2022/12/18 04:29:34;;;;;;;55.17;19.75;;;;;;;-5.07;95.90;97464.19;4992342;28;20055;-80
2022/12/18 04:32:02;;;;;;;56.28;19.58;;;;;;;-5.02;95.90;97460.97;4995931;28;20046;-79
2022/12/18 04:34:29;;;;;;;56.70;19.23;;;;;;;-5.09;96.15;97452.97;4994354;28;20054;-80
2022/12/18 04:36:55;;;;;;;58.42;20.23;;;;;;;-5.10;95.93;97445.19;4991205;28;20054;-77
2022/12/18 04:39:22;;;;;;;60.47;20.95;;;;;;;-5.08;96.01;97448.47;4991314;28;20042;-83
2022/12/18 04:41:48;;;;;;;53.72;20.17;;;;;;;-5.10;95.74;97455.81;4990743;28;20046;-78
2022/12/18 04:44:15;;;;;;;57.10;19.15;;;;;;;-5.20;96.28;97456.13;4991476;28;20046;-78
2022/12/18 04:46:41;;;;;;;53.28;19.08;;;;;;;-5.16;95.98;97457.41;4991058;28;20057;-80
2022/12/18 04:49:10;;;;;;;49.67;19.15;;;;;;;-5.18;95.93;97470.03;4990747;28;20074;-79
2022/12/18 04:51:36;;;;;;;50.95;19.20;;;;;;;-5.17;96.17;97482.28;4990556;28;20051;-80
2022/12/18 04:54:03;;;;;;;54.65;19.88;;;;;;;-5.08;95.67;97488.31;4991242;28;20046;-80
2022/12/18 04:56:32;;;;;;;54.70;19.23;;;;;;;-5.19;95.48;97489.63;4991117;28;20057;-79
2022/12/18 04:58:58;;;;;;;54.67;20.20;;;;;;;-5.16;95.76;97477.81;4991094;28;20050;-79
2022/12/18 05:01:25;;;;;;;48.90;19.23;;;;;;;-5.10;95.87;97475.22;4990778;28;20050;-79
2022/12/18 05:03:52;;;;;;;53.97;20.20;;;;;;;-5.14;96.01;97470.47;4994108;28;20046;-82
2022/12/18 05:06:20;;;;;;;65.43;21.17;;;;;;;-5.13;96.25;97483.56;5002440;28;20049;-83
2022/12/18 05:08:46;;;;;;;53.45;20.90;;;;;;;-5.14;96.24;97481.91;4991825;28;20042;-81
2022/12/18 05:11:15;;;;;;;57.13;21.10;;;;;;;-5.11;96.06;97484.22;4991162;28;20039;-86
2022/12/18 05:13:42;;;;;;;59.15;21.05;;;;;;;-5.12;96.02;97490.50;4997487;28;20046;-83
2022/12/18 05:16:09;;;;;;;58.55;21.30;;;;;;;-5.09;96.15;97484.81;4990991;28;20050;-82
2022/12/18 05:18:36;;;;;;;59.50;21.65;;;;;;;-5.12;96.37;97479.88;4990514;28;20050;-77
2022/12/18 05:21:03;;;;;;;55.40;20.80;;;;;;;-5.23;96.35;97488.38;4990777;28;20046;-78
2022/12/18 05:23:31;;;;;;;56.33;20.65;;;;;;;-5.18;96.03;97491.28;4990442;28;20050;-83
2022/12/18 05:26:00;;;;;;;63.53;21.17;;;;;;;-5.14;96.04;97487.22;4991118;28;20042;-78
2022/12/18 05:28:29;;;;;;;54.42;20.30;;;;;;;-5.08;96.23;97481.16;4991049;28;20073;-81
2022/12/18 05:30:58;;;;;;;59.75;21.17;;;;;;;-5.01;96.17;97482.03;4991911;28;20039;-78
2022/12/18 05:33:27;;;;;;;62.92;21.02;;;;;;;-5.10;96.01;97485.84;4991195;28;20050;-81
2022/12/18 05:35:54;;;;;;;55.95;20.80;;;;;;;-5.02;96.08;97495.50;4990992;28;20053;-79
2022/12/18 05:38:22;;;;;;;62.20;21.95;;;;;;;-5.10;95.85;97493.81;4991135;28;20043;-82
2022/12/18 05:40:50;;;;;;;57.90;21.48;;;;;;;-5.01;95.88;97491.84;4991431;28;20076;-79
2022/12/18 05:43:17;;;;;;;61.67;20.98;;;;;;;-5.02;95.96;97495.50;4991504;28;20050;-77
2022/12/18 05:45:43;;;;;;;58.55;21.08;;;;;;;-4.93;95.66;97499.66;4991018;28;20053;-79
2022/12/18 05:48:14;;;;;;;63.05;21.08;;;;;;;-5.06;95.38;97504.88;4997275;28;20046;-79
2022/12/18 05:50:43;;;;;;;63.28;21.58;;;;;;;-5.09;95.44;97510.56;4992536;28;20065;-82
2022/12/18 05:53:10;;;;;;;57.95;21.98;;;;;;;-5.19;95.41;97505.56;4991421;28;20082;-78
2022/12/18 05:55:38;;;;;;;54.75;20.05;;;;;;;-5.19;95.81;97500.25;4991132;28;20054;-79
2022/12/18 05:58:08;;;;;;;62.33;21.38;;;;;;;-5.19;95.78;97510.88;4993710;28;20065;-77
2022/12/18 06:00:39;;;;;;;57.72;20.15;;;;;;;-5.20;95.60;97517.22;4995155;28;20057;-82
2022/12/18 06:03:06;;;;;;;57.38;20.98;;;;;;;-5.23;95.25;97512.25;4995445;28;20039;-78
2022/12/18 06:05:35;;;;;;;57.70;19.95;;;;;;;-5.32;95.36;97526.69;5003077;28;20058;-83
2022/12/18 06:08:02;;;;;;;51.25;19.70;;;;;;;-5.36;95.53;97526.25;4995839;28;20052;-79
2022/12/18 06:10:30;;;;;;;57.17;19.08;;;;;;;-5.31;95.12;97531.81;5002421;28;20057;-82
2022/12/18 06:12:56;;;;;;;61.47;18.90;;;;;;;-5.32;95.24;97538.13;4995157;28;20046;-88
2022/12/18 06:15:24;;;;;;;53.45;20.52;;;;;;;-5.37;95.16;97529.09;4995380;28;20054;-80
2022/12/18 06:17:51;;;;;;;52.50;19.20;;;;;;;-5.42;95.48;97531.50;4994952;28;20492;-79
2022/12/18 06:20:18;;;;;;;57.67;19.25;;;;;;;-5.39;95.35;97531.09;4990935;28;20045;-82
2022/12/18 06:22:44;;;;;;;56.00;18.65;;;;;;;-5.38;95.53;97535.38;5003425;28;20133;-79
2022/12/18 06:25:11;;;;;;;55.88;20.00;;;;;;;-5.36;95.28;97536.03;4995525;28;20066;-78
2022/12/18 06:27:38;;;;;;;48.28;19.08;;;;;;;-5.43;95.20;97532.47;5002621;28;20045;-80
2022/12/18 06:30:06;;;;;;;51.92;19.77;;;;;;;-5.43;95.21;97529.81;4994588;28;20429;-77
2022/12/18 06:32:33;;;;;;;48.05;17.60;;;;;;;-5.43;95.24;97532.47;4993715;28;20046;-78
2022/12/18 06:35:00;;;;;;;50.20;18.75;;;;;;;-5.40;95.34;97524.16;4993116;28;20061;-77
2022/12/18 06:37:26;;;;;;;54.30;19.30;;;;;;;-5.37;95.03;97529.91;4993544;28;20053;-81
2022/12/18 06:39:53;;;;;;;53.25;19.38;;;;;;;-5.34;94.97;97529.53;4993431;28;20058;-78
2022/12/18 06:42:20;;;;;;;55.50;19.70;;;;;;;-5.38;94.99;97538.03;4993018;28;20046;-79
2022/12/18 06:44:46;;;;;;;54.55;19.58;;;;;;;-5.36;95.23;97541.34;4993162;28;20147;-79
2022/12/18 06:47:13;;;;;;;48.80;17.58;;;;;;;-5.36;95.02;97550.13;4993333;28;20046;-79
2022/12/18 06:49:40;;;;;;;57.58;20.80;;;;;;;-5.38;94.97;97554.78;4993133;28;20226;-78
2022/12/18 06:52:07;;;;;;;55.92;19.13;;;;;;;-5.31;94.85;97560.19;4993068;28;20042;-81
2022/12/18 06:54:33;;;;;;;54.13;20.23;;;;;;;-5.32;94.95;97561.22;4993200;28;20073;-82
2022/12/18 06:57:00;;;;;;;60.05;19.23;;;;;;;-5.26;94.58;97563.09;4997335;28;20458;-81
2022/12/18 06:59:26;;;;;;;57.17;20.17;;;;;;;-5.27;94.60;97561.47;4997170;28;20046;-79
2022/12/18 07:01:53;;;;;;;58.00;21.13;;;;;;;-5.24;94.61;97566.38;4985543;28;20061;-77
2022/12/18 07:04:19;;;;;;;61.13;22.52;;;;;;;-5.22;94.58;97569.69;4993323;28;20047;-79
2022/12/18 07:06:47;;;;;;;56.67;20.17;;;;;;;-5.26;94.10;97568.41;4993008;28;20049;-79
2022/12/18 07:09:14;;;;;;;59.05;20.58;;;;;;;-5.24;94.15;97571.69;4992040;28;20046;-82
2022/12/18 07:11:40;;;;;;;59.08;20.50;;;;;;;-5.25;94.42;97570.06;4992784;28;20042;-79
2022/12/18 07:14:07;;;;;;;59.80;21.65;;;;;;;-5.32;94.61;97566.53;4993265;28;20046;-86
2022/12/18 07:16:33;;;;;;;54.67;20.65;;;;;;;-5.32;94.57;97575.31;4992795;28;20053;-79
2022/12/18 07:19:00;;;;;;;54.47;20.40;;;;;;;-5.32;94.71;97579.78;4993067;28;20061;-79
2022/12/18 07:21:26;;;;;;;58.60;20.50;;;;;;;-5.32;94.77;97588.56;4992685;28;20042;-84
2022/12/18 07:23:54;;;;;;;60.40;21.88;;;;;;;-5.34;95.01;97589.75;4993601;28;20042;-83
2022/12/18 07:26:23;;;;;;;54.28;20.33;;;;;;;-5.36;95.19;97591.78;4993572;28;20046;-82
2022/12/18 07:28:50;;;;;;;53.78;20.15;;;;;;;-5.31;95.28;97597.38;4993286;28;20074;-85
2022/12/18 07:31:20;;;;;;;59.05;21.08;;;;;;;-5.34;95.06;97603.03;4993733;28;20050;-83
2022/12/18 07:33:47;;;;;;;59.70;20.75;;;;;;;-5.32;95.06;97582.44;5001462;28;20494;-79
2022/12/18 07:36:14;;;;;;;63.22;21.73;;;;;;;-5.33;95.13;97591.41;4993252;28;20057;-84
2022/12/18 07:38:41;;;;;;;59.88;22.05;;;;;;;-5.32;95.30;97593.06;4992924;28;20081;-83
2022/12/18 07:41:11;;;;;;;58.53;22.15;;;;;;;-5.28;95.18;97592.47;4993048;28;20050;-79
2022/12/18 07:43:39;;;;;;;55.65;22.02;;;;;;;-5.23;95.12;97599.06;4993306;28;20046;-85
2022/12/18 07:46:06;;;;;;;57.13;20.50;;;;;;;-5.20;95.20;97602.19;5001601;28;20039;-83
2022/12/18 07:48:33;;;;;;;60.83;21.88;;;;;;;-5.23;94.97;97602.53;5001247;28;20060;-80
2022/12/18 07:51:01;;;;;;;60.15;22.38;;;;;;;-5.14;95.03;97604.09;4992810;28;20054;-82
2022/12/18 07:53:27;;;;;;;51.83;20.25;;;;;;;-5.05;94.55;97608.28;4993810;28;20046;-79
2022/12/18 07:55:56;;;;;;;48.65;20.40;;;;;;;-5.06;94.27;97603.97;4985989;28;20055;-81
2022/12/18 07:58:24;;;;;;;47.53;17.38;;;;;;;-5.12;93.19;97595.91;4993313;28;20054;-84
2022/12/18 08:00:52;;;;;;;45.90;16.63;;;;;;;-5.22;92.47;97590.94;4992792;28;20481;-85
2022/12/18 08:03:19;;;;;;;41.17;16.67;;;;;;;-5.23;92.49;97596.41;4992144;28;20397;-83
2022/12/18 08:05:45;;;;;;;44.30;17.60;;;;;;;-5.20;92.61;97602.19;4992180;28;20046;-78
2022/12/18 08:08:12;;;;;;;43.90;17.27;;;;;;;-5.22;92.38;97595.41;4992707;28;20047;-84
2022/12/18 08:10:39;;;;;;;49.92;19.80;;;;;;;-5.39;92.63;97589.50;4992912;28;20056;-79
2022/12/18 08:13:05;;;;;;;48.78;18.38;;;;;;;-5.30;92.12;97593.69;4993362;28;20042;-92
2022/12/18 08:15:33;;;;;;;49.90;18.35;;;;;;;-5.29;92.88;97598.00;5006664;28;20054;-86
2022/12/18 08:18:00;;;;;;;44.13;16.67;;;;;;;-5.35;93.04;97596.09;4998806;28;20508;-82
2022/12/18 08:20:26;;;;;;;45.05;16.95;;;;;;;-5.32;92.38;97596.53;4989830;28;20054;-94
2022/12/18 08:22:54;;;;;;;43.03;16.52;;;;;;;-5.33;92.19;97602.03;4989031;28;20050;-93
2022/12/18 08:25:20;;;;;;;43.67;16.98;;;;;;;-5.35;91.68;97609.34;5001729;28;20144;-95
2022/12/18 08:27:47;;;;;;;46.47;16.33;;;;;;;-5.36;91.72;97615.69;5004575;28;20045;-95
2022/12/18 08:30:14;;;;;;;44.05;16.77;;;;;;;-5.33;91.80;97616.13;5004835;28;20046;-94
2022/12/18 08:32:42;;;;;;;46.15;16.65;;;;;;;-5.33;91.70;97631.22;5000959;28;20080;-85
2022/12/18 08:35:11;;;;;;;44.70;17.52;;;;;;;-5.32;91.32;97627.59;4998088;28;20056;-80
2022/12/18 08:37:38;;;;;;;51.78;18.23;;;;;;;-5.37;91.41;97625.47;4994668;28;20141;-90
2022/12/18 08:40:06;;;;;;;45.65;18.00;;;;;;;-5.31;91.42;97619.44;5012892;28;20061;-81
2022/12/18 08:45:19;;;;;;;42.17;16.45;;;;;;;-5.27;91.02;97625.19;5001980;28;20175;-87
2022/12/18 08:47:47;;;;;;;40.28;15.95;;;;;;;-5.38;90.83;97628.31;4992477;28;20056;-96
2022/12/18 08:50:14;;;;;;;41.65;15.90;;;;;;;-5.28;90.09;97629.66;4994716;28;20053;-89
2022/12/18 08:52:41;;;;;;;40.85;15.82;;;;;;;-5.30;90.04;97628.22;4995779;28;20519;-94
2022/12/18 08:55:09;;;;;;;37.95;15.48;;;;;;;-5.32;90.51;97633.72;4997539;28;20047;-82
2022/12/18 08:57:36;;;;;;;42.35;16.33;;;;;;;-5.27;90.62;97649.09;5008939;28;20684;-91
2022/12/18 09:00:03;;;;;;;40.40;16.42;;;;;;;-5.19;90.68;97646.31;4998053;28;20042;-88
2022/12/18 09:02:30;;;;;;;42.50;15.88;;;;;;;-5.15;90.71;97649.44;5009937;28;20409;-89
2022/12/18 09:04:58;;;;;;;44.90;17.33;;;;;;;-5.16;90.83;97643.28;5001663;28;20047;-87
2022/12/18 09:07:24;;;;;;;46.50;16.80;;;;;;;-5.13;90.71;97648.22;4992080;28;20050;-88
2022/12/18 09:09:51;;;;;;;42.65;16.33;;;;;;;-5.11;90.75;97648.88;4992722;28;20074;-90
2022/12/18 09:12:18;;;;;;;44.65;17.52;;;;;;;-5.07;90.13;97642.16;5000360;28;20046;-90
2022/12/18 09:14:44;;;;;;;39.67;16.20;;;;;;;-5.03;90.31;97638.13;5002258;28;20050;-85
2022/12/18 09:17:11;;;;;;;37.97;15.45;;;;;;;-5.07;89.28;97643.97;4992567;28;20058;-88
2022/12/18 09:19:37;;;;;;;42.33;16.27;;;;;;;-5.04;89.26;97644.44;5002468;28;20520;-84
2022/12/18 09:22:06;;;;;;;40.72;15.95;;;;;;;-4.97;89.50;97641.84;5003048;28;20042;-88
2022/12/18 09:24:32;;;;;;;42.70;17.77;;;;;;;-5.03;89.53;97632.81;4992897;28;20521;-83
2022/12/18 09:26:59;;;;;;;45.80;18.00;;;;;;;-4.92;89.64;97649.25;4999693;28;20054;-92
2022/12/18 09:29:25;;;;;;;40.67;16.33;;;;;;;-4.91;89.54;97634.97;4994708;28;20145;-89
2022/12/18 09:31:52;;;;;;;43.38;15.45;;;;;;;-4.84;89.25;97633.22;4995124;28;20142;-91
2022/12/18 09:34:20;;;;;;;44.42;16.10;;;;;;;-4.84;88.95;97641.19;5003189;28;20058;-91
2022/12/18 09:36:47;;;;;;;48.13;18.33;;;;;;;-4.91;89.10;97629.66;5002291;28;20058;-91
2022/12/18 09:39:15;;;;;;;45.65;17.15;;;;;;;-4.88;89.40;97635.41;4994998;28;20054;-87
2022/12/18 09:41:45;;;;;;;47.85;17.52;;;;;;;-4.84;89.64;97641.19;4997476;28;20121;-93
2022/12/18 09:44:18;;;;;;;45.45;17.75;;;;;;;-4.70;89.69;97648.25;5002519;28;20065;-92
2022/12/18 09:46:48;;;;;;;45.05;18.80;;;;;;;-4.68;89.75;97635.63;5002132;28;20058;-92
2022/12/18 09:49:19;;;;;;;43.42;17.52;;;;;;;-4.59;89.30;97633.66;5005660;28;20580;-90
2022/12/18 09:51:50;;;;;;;48.90;18.50;;;;;;;-4.64;88.82;97630.75;4994102;28;20058;-81
2022/12/18 09:54:23;;;;;;;40.72;16.55;;;;;;;-4.60;88.86;97622.19;4994441;28;20056;-87
2022/12/18 09:56:50;;;;;;;;;;;;;;;-4.62;89.12;97629.53;4999093;28;20391;-87
2022/12/18 09:59:23;;;;;;;40.20;15.52;;;;;;;-4.61;88.64;97623.19;4995489;28;19925;-85
2022/12/18 10:01:50;;;;;;;40.95;16.52;;;;;;;-4.54;88.82;97618.78;4994490;28;20046;-86
2022/12/18 10:04:17;;;;;;;40.67;16.52;;;;;;;-4.59;89.16;97613.22;5000952;28;20088;-85
2022/12/18 10:06:50;;;;;;;43.90;17.63;;;;;;;-4.49;88.48;97602.22;4998724;28;20054;-91
2022/12/18 10:09:23;;;;;;;;;;;;;;;-4.48;88.74;97596.75;4999413;28;20042;-87
2022/12/18 10:11:57;;;;;;;41.30;16.63;;;;;;;-4.52;88.87;97587.50;4993095;28;20604;-83
2022/12/18 10:14:31;;;;;;;47.05;18.05;;;;;;;-4.47;88.84;97586.94;4995616;28;20157;-84
2022/12/18 10:17:06;;;;;;;43.35;17.08;;;;;;;-4.35;89.08;97581.91;4992714;28;20042;-86
2022/12/18 10:19:40;;;;;;;43.92;18.75;;;;;;;-4.31;89.44;97580.50;4999979;28;20061;-87
2022/12/18 10:22:19;;;;;;;41.03;17.65;;;;;;;-4.27;89.29;97581.75;4992850;28;20054;-79
2022/12/18 10:24:55;;;;;;;41.70;18.05;;;;;;;-4.16;89.50;97573.25;4994226;28;20054;-78
2022/12/18 10:27:26;;;;;;;42.65;18.45;;;;;;;-4.09;89.21;97565.28;5004737;28;20056;-83
2022/12/18 10:29:53;;;;;;;46.50;19.67;;;;;;;-4.06;88.34;97570.25;4994500;28;20050;-88
2022/12/18 10:32:22;;;;;;;47.50;19.63;;;;;;;-4.06;88.09;97568.41;5001906;28;20756;-87
2022/12/18 10:34:50;;;;;;;40.10;17.23;;;;;;;-4.00;88.49;97570.28;5008496;28;20046;-83
2022/12/18 10:37:19;;;;;;;42.60;17.52;;;;;;;-3.95;88.25;97572.34;4993214;28;20371;-82
2022/12/18 10:40:08;;;;;;;43.15;18.00;;;;;;;-3.90;88.15;97574.44;5001654;28;20403;-79
2022/12/18 10:42:34;;;;;;;42.72;17.35;;;;;;;-3.81;88.49;97578.53;4991680;28;20078;-81
2022/12/18 10:45:04;;;;;;;44.38;19.00;;;;;;;-3.82;87.97;97577.72;4996677;28;20054;-82
2022/12/18 10:47:30;;;;;;;43.95;17.65;;;;;;;-3.87;86.66;97571.34;4991234;28;20060;-81
2022/12/18 10:49:57;;;;;;;41.63;17.70;;;;;;;-3.83;86.66;97575.28;5000132;28;20042;-80
2022/12/18 10:52:26;;;;;;;41.03;17.52;;;;;;;-3.77;86.45;97569.97;4992206;28;20261;-82
2022/12/18 10:54:58;;;;;;;43.60;18.25;;;;;;;-3.98;85.96;97584.19;4991769;28;20413;-84
2022/12/18 10:57:35;;;;;;;43.08;16.83;;;;;;;-3.96;86.61;97579.50;4991364;28;20054;-81
2022/12/18 11:00:21;;;;;;;44.83;19.00;;;;;;;-3.99;86.96;97582.56;4995233;28;20141;-83
2022/12/18 11:02:48;;;;;;;41.97;18.95;;;;;;;-3.96;87.51;97581.34;4991302;28;20069;-83
2022/12/18 11:05:26;;;;;;;47.17;19.65;;;;;;;-3.91;88.05;97572.78;4990855;28;20133;-84
2022/12/18 11:07:53;;;;;;;45.25;17.73;;;;;;;-3.99;88.10;97571.91;5007079;28;20580;-86
2022/12/18 11:10:24;;;;;;;47.67;19.65;;;;;;;-3.94;87.94;97569.47;4992490;28;20685;-86
2022/12/18 11:12:51;;;;;;;45.97;19.73;;;;;;;-4.00;88.07;97564.13;4999549;28;20046;-85
2022/12/18 11:15:21;;;;;;;41.50;19.05;;;;;;;-4.14;88.12;97568.53;4991614;28;20046;-85
2022/12/18 11:17:50;;;;;;;43.92;18.52;;;;;;;-4.05;88.74;97562.06;4996123;28;20493;-91
2022/12/18 11:20:32;;;;;;;44.33;19.42;;;;;;;-3.94;88.25;97580.13;4989990;28;20050;-81
2022/12/18 11:22:59;;;;;;;49.67;19.85;;;;;;;-3.86;88.20;97576.50;4989664;28;20426;-80
2022/12/18 11:25:29;;;;;;;46.90;20.05;;;;;;;-3.79;88.48;97571.19;4989046;28;20064;-82
2022/12/18 11:27:59;;;;;;;47.88;19.80;;;;;;;-3.73;88.39;97581.06;4989364;28;20050;-85
2022/12/18 11:30:27;;;;;;;43.95;19.58;;;;;;;-3.72;88.27;97588.03;4989463;28;20414;-81
2022/12/18 11:32:59;;;;;;;42.05;18.30;;;;;;;-3.68;88.25;97579.44;4990627;28;20080;-79